createdAt,value
2022-08-09T00:00:25.598Z,12.53
2022-08-09T00:01:25.722Z,12.51
2022-08-09T00:02:25.829Z,12.48
2022-08-09T00:04:10.183Z,12.50
2022-08-09T00:04:35.341Z,12.48
2022-08-09T00:06:15.705Z,12.45
2022-08-09T00:06:25.510Z,12.44
2022-08-09T00:07:25.362Z,12.45
2022-08-09T00:08:32.513Z,12.44
2022-08-09T00:09:25.361Z,12.47
2022-08-09T00:10:25.527Z,12.44
2022-08-09T00:11:25.567Z,12.44
2022-08-09T00:12:25.521Z,12.40
2022-08-09T00:13:25.419Z,12.40
2022-08-09T00:14:38.055Z,12.39
2022-08-09T00:15:26.770Z,12.37
2022-08-09T00:16:26.373Z,12.36
2022-08-09T00:18:10.549Z,12.35
2022-08-09T00:18:25.175Z,12.33
2022-08-09T00:19:25.215Z,12.35
2022-08-09T00:20:25.195Z,12.35
2022-08-09T00:21:25.334Z,12.30
2022-08-09T00:22:25.175Z,12.30
2022-08-09T00:23:54.724Z,12.28
2022-08-09T00:24:25.176Z,12.29
2022-08-09T00:25:32.741Z,12.29
2022-08-09T00:26:30.037Z,12.30
2022-08-09T00:27:25.025Z,12.28
2022-08-09T00:28:26.409Z,12.26
2022-08-09T00:29:39.251Z,12.26
2022-08-09T00:30:27.040Z,12.26
2022-08-09T00:31:56.827Z,12.23
2022-08-09T00:32:27.173Z,12.23
2022-08-09T00:33:32.468Z,12.25
2022-08-09T00:34:24.947Z,12.21
2022-08-09T00:35:25.051Z,12.21
2022-08-09T00:36:27.223Z,12.20
2022-08-09T00:37:25.106Z,12.20
2022-08-09T00:38:24.939Z,12.20
2022-08-09T00:40:12.323Z,12.20
2022-08-09T00:40:30.296Z,12.17
2022-08-09T00:44:15.931Z,12.20
2022-08-09T00:44:32.853Z,12.15
2022-08-09T00:44:42.805Z,12.17
2022-08-09T00:45:50.576Z,12.15
2022-08-09T00:46:57.468Z,12.15
2022-08-09T00:47:42.625Z,12.14
2022-08-09T00:48:42.479Z,12.12
2022-08-09T00:49:42.567Z,12.12
2022-08-09T00:50:42.514Z,12.10
2022-08-09T00:51:54.826Z,12.10
2022-08-09T00:52:42.504Z,12.10
2022-08-09T00:53:42.408Z,12.08
2022-08-09T00:54:43.066Z,12.08
2022-08-09T00:56:05.425Z,12.07
2022-08-09T00:56:42.481Z,12.05
2022-08-09T00:57:42.361Z,12.03
2022-08-09T00:58:42.460Z,12.03
2022-08-09T00:59:46.313Z,12.00
2022-08-09T01:00:42.598Z,11.99
2022-08-09T01:01:44.377Z,11.99
2022-08-09T01:02:42.480Z,11.99
2022-08-09T01:03:46.337Z,11.97
2022-08-09T01:04:44.002Z,11.97
2022-08-09T01:05:53.131Z,11.96
2022-08-09T01:06:54.876Z,11.96
2022-08-09T01:08:00.448Z,11.97
2022-08-09T01:08:49.512Z,11.93
2022-08-09T01:09:42.350Z,11.93
2022-08-09T01:10:42.137Z,11.93
2022-08-09T01:11:42.155Z,11.91
2022-08-09T01:12:42.202Z,11.91
2022-08-09T01:13:59.395Z,11.89
2022-08-09T01:14:42.145Z,11.86
2022-08-09T01:15:52.602Z,11.88
2022-08-09T01:16:47.238Z,11.85
2022-08-09T01:17:42.279Z,11.81
2022-08-09T01:18:42.211Z,11.83
2022-08-09T01:19:51.811Z,11.81
2022-08-09T01:20:42.024Z,11.83
2022-08-09T01:21:44.950Z,11.81
2022-08-09T01:22:42.143Z,11.83
2022-08-09T01:24:00.961Z,11.80
2022-08-09T01:24:43.919Z,11.78
2022-08-09T01:25:42.190Z,11.78
2022-08-09T01:26:42.145Z,11.80
2022-08-09T01:27:41.994Z,11.80
2022-08-09T01:28:41.912Z,11.80
2022-08-09T01:29:55.577Z,11.80
2022-08-09T01:30:52.418Z,11.77
2022-08-09T01:32:30.737Z,11.76
2022-08-09T01:32:46.110Z,11.76
2022-08-09T01:33:42.007Z,11.71
2022-08-09T01:34:41.848Z,11.73
2022-08-09T01:35:42.278Z,11.73
2022-08-09T01:36:41.895Z,11.71
2022-08-09T01:38:05.653Z,11.71
2022-08-09T01:38:41.814Z,11.71
2022-08-09T01:39:42.049Z,11.70
2022-08-09T01:40:41.815Z,11.71
2022-08-09T01:41:53.767Z,11.70
2022-08-09T01:42:41.928Z,11.68
2022-08-09T01:43:51.264Z,11.68
2022-08-09T01:44:41.701Z,11.68
2022-08-09T01:45:46.226Z,11.63
2022-08-09T01:46:41.819Z,11.67
2022-08-09T01:47:44.959Z,11.65
2022-08-09T01:48:41.911Z,11.62
2022-08-09T01:49:41.720Z,11.60
2022-08-09T01:50:41.935Z,11.59
2022-08-09T01:51:42.735Z,11.62
2022-08-09T01:52:43.426Z,11.60
2022-08-09T01:53:41.857Z,11.60
2022-08-09T01:54:41.815Z,11.60
2022-08-09T01:55:41.807Z,11.62
2022-08-09T01:56:41.535Z,11.59
2022-08-09T01:57:45.739Z,11.58
2022-08-09T01:58:41.495Z,11.60
2022-08-09T01:59:51.985Z,11.59
2022-08-09T02:00:41.484Z,11.58
2022-08-09T02:01:59.465Z,11.59
2022-08-09T02:02:41.494Z,11.58
2022-08-09T02:03:41.416Z,11.56
2022-08-09T02:04:45.782Z,11.58
2022-08-09T02:06:03.228Z,11.56
2022-08-09T02:06:45.479Z,11.58
2022-08-09T02:08:39.148Z,11.55
2022-08-09T02:09:03.649Z,11.55
2022-08-09T02:09:42.185Z,11.53
2022-08-09T02:10:42.792Z,11.52
2022-08-09T02:11:43.524Z,11.51
2022-08-09T02:12:41.293Z,11.52
2022-08-09T02:13:41.438Z,11.52
2022-08-09T02:14:41.270Z,11.52
2022-08-09T02:15:49.362Z,11.52
2022-08-09T02:16:59.740Z,11.49
2022-08-09T02:18:00.004Z,11.49
2022-08-09T02:18:42.688Z,11.48
2022-08-09T02:19:43.444Z,11.49
2022-08-09T02:20:41.226Z,11.45
2022-08-09T02:21:41.185Z,11.43
2022-08-09T02:22:41.419Z,11.43
2022-08-09T02:23:43.191Z,11.44
2022-08-09T02:24:41.205Z,11.41
2022-08-09T02:25:41.898Z,11.41
2022-08-09T02:26:41.184Z,11.40
2022-08-09T02:27:57.967Z,11.40
2022-08-09T02:28:41.208Z,11.38
2022-08-09T02:29:41.087Z,11.38
2022-08-09T02:30:41.479Z,11.37
2022-08-09T02:31:41.062Z,11.37
2022-08-09T02:32:41.046Z,11.35
2022-08-09T02:34:06.350Z,11.37
2022-08-09T02:34:51.643Z,11.33
2022-08-09T02:36:01.229Z,11.33
2022-08-09T02:36:41.983Z,11.33
2022-08-09T02:37:41.019Z,11.31
2022-08-09T02:38:40.938Z,11.33
2022-08-09T02:39:42.726Z,11.31
2022-08-09T02:40:41.003Z,11.30
2022-08-09T02:41:40.910Z,11.31
2022-08-09T02:42:40.949Z,11.26
2022-08-09T02:43:53.590Z,11.26
2022-08-09T02:44:40.925Z,11.26
2022-08-09T02:45:41.015Z,11.25
2022-08-09T02:46:40.866Z,11.23
2022-08-09T02:47:58.102Z,11.23
2022-08-09T02:48:40.865Z,11.23
2022-08-09T02:49:41.369Z,11.22
2022-08-09T02:50:40.878Z,11.22
2022-08-09T02:51:40.897Z,11.22
2022-08-09T02:52:40.853Z,11.22
2022-08-09T02:53:43.072Z,11.20
2022-08-09T02:54:54.453Z,11.19
2022-08-09T02:55:53.560Z,11.20
2022-08-09T02:56:40.709Z,11.19
2022-08-09T02:58:00.719Z,11.22
2022-08-09T02:58:40.708Z,11.19
2022-08-09T02:59:40.779Z,11.22
2022-08-09T03:00:58.164Z,11.19
2022-08-09T03:01:43.331Z,11.20
2022-08-09T03:02:58.493Z,11.19
2022-08-09T03:04:18.467Z,11.18
2022-08-09T03:04:40.736Z,11.16
2022-08-09T03:05:40.700Z,11.18
2022-08-09T03:06:40.559Z,11.15
2022-08-09T03:07:40.708Z,11.16
2022-08-09T03:08:40.548Z,11.16
2022-08-09T03:09:43.011Z,11.16
2022-08-09T03:10:40.614Z,11.15
2022-08-09T03:12:09.674Z,11.15
2022-08-09T03:12:40.496Z,11.13
2022-08-09T03:13:43.874Z,11.10
2022-08-09T03:14:40.757Z,11.12
2022-08-09T03:16:06.393Z,11.10
2022-08-09T03:16:45.026Z,11.10
2022-08-09T03:17:40.693Z,11.10
2022-08-09T03:18:40.578Z,11.10
2022-08-09T03:19:58.931Z,11.07
2022-08-09T03:20:40.375Z,11.05
2022-08-09T03:21:40.461Z,11.05
2022-08-09T03:22:41.818Z,11.05
2022-08-09T03:23:40.380Z,11.05
2022-08-09T03:24:42.367Z,11.04
2022-08-09T03:25:58.306Z,11.00
2022-08-09T03:26:45.121Z,11.02
2022-08-09T03:27:45.351Z,11.02
2022-08-09T03:28:40.340Z,11.04
2022-08-09T03:29:43.164Z,11.02
2022-08-09T03:30:40.251Z,11.02
2022-08-09T03:31:42.764Z,11.01
2022-08-09T03:32:40.220Z,11.02
2022-08-09T03:33:54.696Z,11.02
2022-08-09T03:34:40.220Z,11.02
2022-08-09T03:36:11.561Z,11.04
2022-08-09T03:36:40.274Z,11.01
2022-08-09T03:37:55.364Z,11.01
2022-08-09T03:38:41.898Z,11.01
2022-08-09T03:39:40.271Z,11.01
2022-08-09T03:40:40.207Z,11.02
2022-08-09T03:41:46.072Z,11.01
2022-08-09T03:42:40.073Z,10.97
2022-08-09T03:43:40.054Z,10.98
2022-08-09T03:44:40.114Z,10.98
2022-08-09T03:46:04.011Z,10.97
2022-08-09T03:46:40.246Z,11.00
2022-08-09T03:47:44.142Z,10.97
2022-08-09T03:48:51.322Z,10.97
2022-08-09T03:49:40.139Z,10.95
2022-08-09T03:50:40.002Z,10.94
2022-08-09T03:51:54.082Z,10.95
2022-08-09T03:52:39.941Z,10.97
2022-08-09T03:53:40.060Z,10.98
2022-08-09T03:54:39.926Z,10.97
2022-08-09T03:55:40.858Z,10.97
2022-08-09T03:56:41.295Z,10.97
2022-08-09T03:57:53.471Z,10.98
2022-08-09T03:58:39.901Z,11.00
2022-08-09T03:59:53.514Z,10.98
2022-08-09T04:00:39.946Z,10.98
2022-08-09T04:01:40.145Z,11.00
2022-08-09T04:02:39.840Z,11.01
2022-08-09T04:04:00.395Z,11.01
2022-08-09T04:04:39.916Z,11.02
2022-08-09T04:05:40.542Z,11.04
2022-08-09T04:06:39.906Z,11.04
2022-08-09T04:07:52.724Z,11.07
2022-08-09T04:08:39.725Z,11.07
2022-08-09T04:09:47.459Z,11.08
2022-08-09T04:10:39.906Z,11.12
2022-08-09T04:11:39.744Z,11.12
2022-08-09T04:12:39.664Z,11.15
2022-08-09T04:13:45.062Z,11.15
2022-08-09T04:15:00.497Z,11.16
2022-08-09T04:16:18.489Z,11.15
2022-08-09T04:16:39.621Z,11.18
2022-08-09T04:17:42.267Z,11.19
2022-08-09T04:18:39.600Z,11.23
2022-08-09T04:19:51.143Z,11.23
2022-08-09T04:20:39.583Z,11.26
2022-08-09T04:21:40.242Z,11.26
2022-08-09T04:22:41.252Z,11.30
2022-08-09T04:23:39.792Z,11.33
2022-08-09T04:24:39.519Z,11.34
2022-08-09T04:25:39.541Z,11.35
2022-08-09T04:26:39.449Z,11.37
2022-08-09T04:27:39.466Z,11.40
2022-08-09T04:28:42.290Z,11.43
2022-08-09T04:29:39.434Z,11.44
2022-08-09T04:30:39.449Z,11.44
2022-08-09T04:31:47.070Z,11.49
2022-08-09T04:32:39.785Z,11.52
2022-08-09T04:33:47.695Z,11.56
2022-08-09T04:34:39.370Z,11.59
2022-08-09T04:35:39.383Z,11.60
2022-08-09T04:36:44.973Z,11.63
2022-08-09T04:37:45.827Z,11.68
2022-08-09T04:38:39.339Z,11.70
2022-08-09T04:39:40.691Z,11.76
2022-08-09T04:40:39.331Z,11.77
2022-08-09T04:41:43.745Z,11.81
2022-08-09T04:42:39.271Z,11.85
2022-08-09T04:43:39.279Z,11.88
2022-08-09T04:44:39.342Z,11.93
2022-08-09T04:45:53.714Z,11.95
2022-08-09T04:46:59.323Z,11.99
2022-08-09T04:47:58.709Z,12.03
2022-08-09T04:48:39.286Z,12.08
2022-08-09T04:49:54.816Z,12.10
2022-08-09T04:50:39.335Z,12.15
2022-08-09T04:51:39.420Z,12.21
2022-08-09T04:52:39.288Z,12.29
2022-08-09T04:53:39.153Z,12.39
2022-08-09T04:54:39.253Z,12.51
2022-08-09T04:55:41.398Z,12.58
2022-08-09T04:56:39.154Z,12.66
2022-08-09T04:57:58.923Z,12.72
2022-08-09T04:58:39.097Z,12.78
2022-08-09T04:59:39.106Z,12.90
2022-08-09T05:00:39.128Z,12.94
2022-08-09T05:01:39.120Z,13.02
2022-08-09T05:02:39.286Z,13.06
2022-08-09T05:03:42.734Z,13.12
2022-08-09T05:04:39.020Z,13.17
2022-08-09T05:05:52.676Z,13.23
2022-08-09T05:06:39.041Z,13.30
2022-08-09T05:07:39.119Z,13.40
2022-08-09T05:08:38.919Z,13.52
2022-08-09T05:09:45.402Z,13.65
2022-08-09T05:10:38.947Z,13.79
2022-08-09T05:11:39.080Z,13.93
2022-08-09T05:12:39.065Z,14.08
2022-08-09T05:13:39.236Z,14.33
2022-08-09T05:14:39.015Z,14.55
2022-08-09T05:15:45.463Z,14.87
2022-08-09T05:16:58.197Z,15.78
2022-08-09T05:18:37.819Z,16.98
2022-08-09T05:18:58.337Z,18.06
2022-08-09T05:19:44.971Z,18.92
2022-08-09T05:20:39.029Z,19.72
2022-08-09T05:21:47.218Z,20.34
2022-08-09T05:23:54.337Z,20.95
2022-08-09T05:24:06.242Z,21.33
2022-08-09T05:24:38.677Z,21.58
2022-08-09T05:25:38.845Z,22.03
2022-08-09T05:26:46.329Z,22.43
2022-08-09T05:27:39.028Z,22.78
2022-08-09T05:28:38.940Z,23.10
2022-08-09T05:29:38.639Z,23.42
2022-08-09T05:30:38.683Z,23.67
2022-08-09T05:31:46.849Z,23.92
2022-08-09T05:32:38.648Z,24.10
2022-08-09T05:33:42.415Z,24.25
2022-08-09T05:34:38.580Z,24.37
2022-08-09T05:35:46.707Z,24.50
2022-08-09T05:36:38.640Z,24.41
2022-08-09T05:37:47.637Z,24.31
2022-08-09T05:38:39.152Z,24.22
2022-08-09T05:39:42.663Z,24.44
2022-08-09T05:40:38.609Z,24.71
2022-08-09T05:41:38.494Z,24.82
2022-08-09T05:42:38.535Z,25.00
2022-08-09T05:43:38.454Z,25.18
2022-08-09T05:44:38.440Z,25.41
2022-08-09T05:45:52.567Z,25.37
2022-08-09T05:46:38.415Z,25.41
2022-08-09T05:47:52.448Z,25.06
2022-08-09T05:48:38.419Z,25.15
2022-08-09T05:50:23.353Z,25.11
2022-08-09T05:50:57.066Z,25.22
2022-08-09T05:51:46.179Z,25.36
2022-08-09T05:52:38.522Z,25.63
2022-08-09T05:53:56.936Z,25.58
2022-08-09T05:54:38.298Z,25.56
2022-08-09T05:55:38.296Z,25.62
2022-08-09T05:56:38.265Z,25.76
2022-08-09T05:57:55.697Z,25.89
2022-08-09T05:58:38.214Z,25.98
2022-08-09T05:59:38.323Z,26.01
2022-08-09T06:00:38.195Z,26.15
2022-08-09T06:01:42.574Z,26.33
2022-08-09T06:02:38.355Z,26.56
2022-08-09T06:03:44.154Z,26.74
2022-08-09T06:04:44.605Z,27.00
2022-08-09T06:05:54.713Z,27.47
2022-08-09T06:06:38.214Z,27.82
2022-08-09T06:07:38.146Z,27.83
2022-08-09T06:08:38.310Z,27.93
2022-08-09T06:09:54.013Z,27.90
2022-08-09T06:10:38.182Z,27.86
2022-08-09T06:11:41.088Z,27.95
2022-08-09T06:12:38.148Z,27.93
2022-08-09T06:13:38.061Z,28.03
2022-08-09T06:14:38.075Z,28.13
2022-08-09T06:15:38.161Z,27.94
2022-08-09T06:16:38.118Z,27.73
2022-08-09T06:17:39.888Z,27.81
2022-08-09T06:18:38.015Z,27.94
2022-08-09T06:19:38.019Z,27.85
2022-08-09T06:20:37.945Z,28.13
2022-08-09T06:21:50.271Z,28.37
2022-08-09T06:22:38.074Z,28.41
2022-08-09T06:23:58.024Z,28.56
2022-08-09T06:24:37.964Z,27.78
2022-08-09T06:25:37.896Z,27.64
2022-08-09T06:26:37.885Z,27.71
2022-08-09T06:27:42.649Z,27.35
2022-08-09T06:28:37.932Z,28.03
2022-08-09T06:29:48.394Z,28.43
2022-08-09T06:30:37.839Z,28.72
2022-08-09T06:31:40.500Z,28.68
2022-08-09T06:33:13.698Z,28.94
2022-08-09T06:33:52.902Z,28.83
2022-08-09T06:34:37.828Z,28.71
2022-08-09T06:35:57.477Z,28.97
2022-08-09T06:36:37.953Z,29.35
2022-08-09T06:37:53.363Z,29.24
2022-08-09T06:38:37.920Z,29.40
2022-08-09T06:39:39.690Z,29.73
2022-08-09T06:40:38.085Z,30.01
2022-08-09T06:41:39.711Z,30.21
2022-08-09T06:42:45.005Z,30.24
2022-08-09T06:43:37.845Z,30.29
2022-08-09T06:44:37.678Z,29.98
2022-08-09T06:46:04.902Z,29.87
2022-08-09T06:46:40.107Z,29.89
2022-08-09T06:47:39.936Z,29.98
2022-08-09T06:48:37.675Z,30.18
2022-08-09T06:50:11.631Z,30.24
2022-08-09T06:50:37.589Z,30.27
2022-08-09T06:51:39.825Z,30.44
2022-08-09T06:52:37.571Z,30.61
2022-08-09T06:53:38.586Z,30.71
2022-08-09T06:54:37.571Z,31.05
2022-08-09T06:55:37.508Z,31.39
2022-08-09T06:56:37.534Z,31.60
2022-08-09T06:58:01.171Z,31.45
2022-08-09T07:00:47.719Z,31.39
2022-08-09T07:01:01.567Z,30.46
2022-08-09T07:01:07.846Z,30.74
2022-08-09T07:02:06.685Z,31.08
2022-08-09T07:03:06.691Z,31.48
2022-08-09T07:04:06.615Z,31.69
2022-08-09T07:05:06.615Z,31.87
2022-08-09T07:06:06.659Z,32.07
2022-08-09T07:07:06.789Z,31.92
2022-08-09T07:08:06.700Z,32.16
2022-08-09T07:09:06.571Z,32.51
2022-08-09T07:10:19.528Z,32.57
2022-08-09T07:11:06.785Z,32.16
2022-08-09T07:12:06.509Z,31.74
2022-08-09T07:13:27.554Z,31.82
2022-08-09T07:14:06.660Z,31.86
2022-08-09T07:16:36.200Z,32.08
2022-08-09T07:16:48.697Z,32.04
2022-08-09T07:17:08.205Z,32.27
2022-08-09T07:18:06.467Z,32.61
2022-08-09T07:19:06.525Z,33.04
2022-08-09T07:20:06.454Z,33.20
2022-08-09T07:21:07.940Z,33.00
2022-08-09T07:22:06.383Z,32.88
2022-08-09T07:23:18.719Z,33.04
2022-08-09T07:24:06.597Z,33.22
2022-08-09T07:25:09.821Z,33.09
2022-08-09T07:26:06.428Z,33.22
2022-08-09T07:27:10.862Z,33.32
2022-08-09T07:28:06.310Z,33.47
2022-08-09T07:29:11.767Z,33.50
2022-08-09T07:30:06.288Z,33.55
2022-08-09T07:31:06.266Z,33.65
2022-08-09T07:32:06.324Z,33.66
2022-08-09T07:33:10.277Z,33.61
2022-08-09T07:34:06.384Z,33.66
2022-08-09T07:35:07.950Z,33.50
2022-08-09T07:36:06.317Z,33.40
2022-08-09T07:37:06.195Z,33.44
2022-08-09T07:38:06.294Z,33.23
2022-08-09T07:39:06.242Z,33.12
2022-08-09T07:40:06.287Z,32.53
2022-08-09T07:41:11.694Z,31.90
2022-08-09T07:42:06.371Z,31.47
2022-08-09T07:43:14.761Z,32.02
2022-08-09T07:44:06.316Z,32.34
2022-08-09T07:45:14.909Z,31.87
2022-08-09T07:46:06.359Z,32.02
2022-08-09T07:47:06.073Z,31.36
2022-08-09T07:48:06.318Z,31.25
2022-08-09T07:49:06.039Z,30.92
2022-08-09T07:50:08.592Z,30.80
2022-08-09T07:51:09.846Z,30.86
2022-08-09T07:52:17.254Z,30.80
2022-08-09T07:53:06.026Z,31.08
2022-08-09T07:54:07.351Z,31.45
2022-08-09T07:55:08.911Z,32.12
2022-08-09T07:56:06.688Z,32.44
2022-08-09T07:57:11.655Z,32.61
2022-08-09T07:58:05.964Z,32.86
2022-08-09T07:59:12.441Z,32.76
2022-08-09T08:00:08.676Z,33.03
2022-08-09T08:01:11.258Z,33.23
2022-08-09T08:02:06.085Z,33.44
2022-08-09T08:03:08.377Z,33.23
2022-08-09T08:04:10.650Z,33.40
2022-08-09T08:05:17.534Z,33.33
2022-08-09T08:06:06.039Z,33.36
2022-08-09T08:07:14.696Z,33.33
2022-08-09T08:08:44.114Z,32.93
2022-08-09T08:09:34.321Z,32.95
2022-08-09T08:10:10.529Z,32.66
2022-08-09T08:12:08.874Z,32.37
2022-08-09T08:12:27.929Z,32.07
2022-08-09T08:13:05.835Z,31.98
2022-08-09T08:14:06.438Z,32.12
2022-08-09T08:15:07.404Z,32.39
2022-08-09T08:16:05.693Z,32.23
2022-08-09T08:17:09.061Z,32.31
2022-08-09T08:18:05.749Z,32.48
2022-08-09T08:19:05.677Z,32.59
2022-08-09T08:20:12.576Z,32.64
2022-08-09T08:21:05.649Z,32.93
2022-08-09T08:22:05.672Z,33.32
2022-08-09T08:23:16.294Z,32.95
2022-08-09T08:24:11.862Z,32.12
2022-08-09T08:25:05.588Z,32.12
2022-08-09T08:26:08.105Z,31.85
2022-08-09T08:27:05.814Z,31.82
2022-08-09T08:28:05.647Z,32.23
2022-08-09T08:29:05.554Z,32.26
2022-08-09T08:30:05.564Z,31.97
2022-08-09T08:31:14.177Z,31.98
2022-08-09T08:32:06.203Z,32.26
2022-08-09T08:33:05.515Z,32.27
2022-08-09T08:34:05.465Z,32.66
2022-08-09T08:35:05.520Z,33.00
2022-08-09T08:36:05.472Z,32.81
2022-08-09T08:37:05.511Z,32.49
2022-08-09T08:38:11.654Z,32.41
2022-08-09T08:39:05.567Z,32.59
2022-08-09T08:40:05.718Z,32.85
2022-08-09T08:41:05.632Z,33.33
2022-08-09T08:42:05.399Z,33.40
2022-08-09T08:43:13.341Z,33.39
2022-08-09T08:44:05.734Z,32.37
2022-08-09T08:45:13.248Z,31.69
2022-08-09T08:46:32.654Z,31.73
2022-08-09T08:47:12.358Z,31.82
2022-08-09T08:48:05.415Z,31.42
2022-08-09T08:49:05.494Z,31.69
2022-08-09T08:50:05.274Z,31.82
2022-08-09T08:51:05.324Z,32.31
2022-08-09T08:52:10.397Z,32.26
2022-08-09T08:53:06.106Z,32.46
2022-08-09T08:54:05.338Z,32.53
2022-08-09T08:55:05.401Z,32.75
2022-08-09T08:56:05.360Z,32.83
2022-08-09T08:57:05.601Z,32.94
2022-08-09T08:58:05.178Z,33.03
2022-08-09T08:59:07.776Z,33.08
2022-08-09T09:00:13.097Z,33.17
2022-08-09T09:01:08.931Z,33.03
2022-08-09T09:02:05.625Z,33.50
2022-08-09T09:03:08.675Z,33.61
2022-08-09T09:04:05.367Z,33.20
2022-08-09T09:05:09.978Z,33.40
2022-08-09T09:06:05.513Z,33.76
2022-08-09T09:07:05.703Z,33.16
2022-08-09T09:08:05.064Z,32.73
2022-08-09T09:09:06.866Z,32.56
2022-08-09T09:10:08.920Z,32.64
2022-08-09T09:11:05.577Z,32.82
2022-08-09T09:12:08.913Z,32.56
2022-08-09T09:13:09.283Z,32.34
2022-08-09T09:14:04.940Z,32.59
2022-08-09T09:15:05.658Z,32.44
2022-08-09T09:16:05.009Z,32.54
2022-08-09T09:17:05.961Z,32.08
2022-08-09T09:18:04.919Z,32.24
2022-08-09T09:20:04.893Z,32.07
2022-08-09T09:21:05.254Z,32.19
2022-08-09T09:22:05.443Z,32.15
2022-08-09T09:23:04.874Z,31.89
2022-08-09T09:24:05.422Z,32.29
2022-08-09T09:26:00.488Z,32.38
2022-08-09T09:26:12.339Z,32.29
2022-08-09T09:27:04.820Z,32.12
2022-08-09T09:28:08.055Z,32.26
2022-08-09T09:29:11.361Z,31.86
2022-08-09T09:30:11.955Z,32.15
2022-08-09T09:31:04.759Z,32.39
2022-08-09T09:32:14.760Z,31.74
2022-08-09T09:33:15.931Z,31.95
2022-08-09T09:34:05.030Z,32.42
2022-08-09T09:35:08.976Z,32.46
2022-08-09T09:36:19.934Z,32.23
2022-08-09T09:37:04.875Z,32.04
2022-08-09T09:38:04.708Z,32.54
2022-08-09T09:39:05.934Z,31.78
2022-08-09T09:40:04.777Z,31.25
2022-08-09T09:41:04.630Z,31.11
2022-08-09T09:42:07.696Z,31.22
2022-08-09T09:43:04.612Z,31.30
2022-08-09T09:44:10.615Z,31.54
2022-08-09T09:45:04.878Z,31.62
2022-08-09T09:47:04.857Z,31.62
2022-08-09T09:48:04.859Z,31.39
2022-08-09T09:49:04.600Z,31.23
2022-08-09T09:50:15.105Z,31.35
2022-08-09T09:51:04.530Z,31.20
2022-08-09T09:52:04.498Z,31.50
2022-08-09T09:53:04.547Z,31.78
2022-08-09T09:54:09.400Z,32.08
2022-08-09T09:55:16.084Z,31.85
2022-08-09T09:56:05.633Z,31.79
2022-08-09T09:58:03.578Z,31.70
2022-08-09T09:58:15.759Z,31.79
2022-08-09T09:59:04.405Z,31.72
2022-08-09T10:00:04.414Z,31.79
2022-08-09T10:01:04.659Z,32.12
2022-08-09T10:02:04.379Z,32.05
2022-08-09T10:03:11.482Z,32.00
2022-08-09T10:04:09.649Z,32.08
2022-08-09T10:05:06.685Z,32.26
2022-08-09T10:06:04.828Z,32.42
2022-08-09T10:07:09.736Z,32.49
2022-08-09T10:08:27.382Z,32.46
2022-08-09T10:09:11.846Z,32.56
2022-08-09T10:10:04.394Z,32.81
2022-08-09T10:11:30.845Z,32.67
2022-08-09T10:12:15.049Z,32.56
2022-08-09T10:13:04.225Z,32.38
2022-08-09T10:14:04.384Z,32.22
2022-08-09T10:15:04.214Z,31.98
2022-08-09T10:16:55.001Z,32.07
2022-08-09T10:17:23.983Z,32.00
2022-08-09T10:18:04.469Z,32.08
2022-08-09T10:19:04.310Z,32.05
2022-08-09T10:20:04.368Z,32.08
2022-08-09T10:21:04.209Z,32.46
2022-08-09T10:22:04.369Z,31.97
2022-08-09T10:23:04.205Z,31.86
2022-08-09T10:24:04.265Z,31.44
2022-08-09T10:25:11.849Z,31.26
2022-08-09T10:26:07.297Z,31.11
2022-08-09T10:27:10.399Z,31.02
2022-08-09T10:28:04.053Z,30.89
2022-08-09T10:29:35.961Z,31.07
2022-08-09T10:33:04.070Z,32.04
2022-08-09T10:34:11.049Z,31.57
2022-08-09T10:35:03.948Z,31.74
2022-08-09T10:36:04.445Z,31.85
2022-08-09T10:37:03.977Z,31.57
2022-08-09T10:38:03.910Z,31.17
2022-08-09T10:39:05.946Z,31.18
2022-08-09T10:40:03.968Z,30.98
2022-08-09T10:41:03.967Z,31.26
2022-08-09T10:42:03.926Z,31.66
2022-08-09T10:43:03.893Z,31.92
2022-08-09T10:44:03.823Z,31.90
2022-08-09T10:45:04.265Z,32.05
2022-08-09T10:46:03.813Z,32.09
2022-08-09T10:48:12.425Z,31.55
2022-08-09T10:48:31.239Z,31.36
2022-08-09T10:49:03.903Z,30.70
2022-08-09T10:50:03.744Z,30.73
2022-08-09T10:51:03.736Z,30.78
2022-08-09T10:52:03.819Z,30.81
2022-08-09T10:53:03.730Z,31.00
2022-08-09T10:54:05.064Z,31.07
2022-08-09T10:55:03.690Z,30.77
2022-08-09T10:56:03.729Z,30.29
2022-08-09T10:57:03.729Z,29.89
2022-08-09T10:58:03.839Z,29.50
2022-08-09T10:59:03.638Z,29.32
2022-08-09T11:00:03.719Z,29.64
2022-08-09T11:03:02.560Z,29.90
2022-08-09T11:03:50.459Z,29.89
2022-08-09T11:04:01.872Z,29.79
2022-08-09T11:04:32.470Z,29.69
2022-08-09T11:05:31.273Z,29.84
2022-08-09T11:06:30.086Z,29.68
2022-08-09T11:07:58.224Z,29.52
2022-08-09T11:08:33.171Z,29.37
2022-08-09T11:09:33.678Z,29.28
2022-08-09T11:10:30.040Z,29.00
2022-08-09T11:11:30.008Z,28.89
2022-08-09T11:12:30.317Z,28.49
2022-08-09T11:13:53.927Z,28.28
2022-08-09T11:14:31.760Z,28.28
2022-08-09T11:15:34.206Z,28.31
2022-08-09T11:16:35.247Z,28.38
2022-08-09T11:17:31.155Z,28.34
2022-08-09T11:18:29.918Z,28.30
2022-08-09T11:20:08.055Z,28.27
2022-08-09T11:20:29.892Z,27.94
2022-08-09T11:21:29.944Z,28.04
2022-08-09T11:22:29.975Z,28.08
2022-08-09T11:23:30.344Z,28.08
2022-08-09T11:24:29.854Z,27.68
2022-08-09T11:25:44.922Z,27.23
2022-08-09T11:26:29.974Z,27.29
2022-08-09T11:28:03.076Z,26.70
2022-08-09T11:28:33.868Z,26.48
2022-08-09T11:30:06.015Z,26.60
2022-08-09T11:30:38.480Z,26.60
2022-08-09T11:31:34.099Z,26.59
2022-08-09T11:32:29.743Z,26.63
2022-08-09T11:33:29.868Z,26.33
2022-08-09T11:34:29.698Z,26.06
2022-08-09T11:35:34.929Z,26.18
2022-08-09T11:36:35.571Z,26.29
2022-08-09T11:37:31.345Z,26.48
2022-08-09T11:38:32.917Z,26.46
2022-08-09T11:39:33.759Z,26.60
2022-08-09T11:40:29.668Z,26.48
2022-08-09T11:41:37.855Z,26.39
2022-08-09T11:42:30.362Z,26.52
2022-08-09T11:43:32.197Z,26.67
2022-08-09T11:44:29.646Z,26.73
2022-08-09T11:45:42.033Z,26.85
2022-08-09T11:46:33.647Z,26.79
2022-08-09T11:47:29.803Z,26.76
2022-08-09T11:48:29.668Z,26.81
2022-08-09T11:49:42.734Z,26.71
2022-08-09T11:52:48.689Z,26.74
2022-08-09T11:53:58.005Z,26.81
2022-08-09T11:54:12.861Z,26.74
2022-08-09T11:54:28.581Z,26.88
2022-08-09T11:55:34.723Z,26.98
2022-08-09T11:56:20.050Z,27.11
2022-08-09T11:57:28.404Z,27.37
2022-08-09T11:58:19.841Z,27.45
2022-08-09T11:59:19.572Z,27.48
2022-08-09T12:00:24.575Z,27.58
2022-08-09T12:02:16.056Z,27.63
2022-08-09T12:02:37.036Z,27.52
2022-08-09T12:03:54.703Z,27.20
2022-08-09T12:04:20.776Z,26.79
2022-08-09T12:05:23.119Z,26.67
2022-08-09T12:06:26.807Z,26.66
2022-08-09T12:07:19.668Z,26.59
2022-08-09T12:08:19.869Z,26.51
2022-08-09T12:09:21.074Z,26.42
2022-08-09T12:10:39.259Z,26.24
2022-08-09T12:11:19.320Z,26.24
2022-08-09T12:12:20.248Z,26.22
2022-08-09T12:14:10.614Z,26.03
2022-08-09T12:15:04.044Z,25.92
2022-08-09T12:15:19.257Z,25.80
2022-08-09T12:16:30.358Z,25.70
2022-08-09T12:17:34.335Z,25.78
2022-08-09T12:18:30.342Z,25.91
2022-08-09T12:19:19.325Z,25.99
2022-08-09T12:20:21.386Z,25.95
2022-08-09T12:21:28.361Z,25.93
2022-08-09T12:22:19.493Z,25.93
2022-08-09T12:23:24.726Z,26.06
2022-08-09T12:24:19.125Z,26.15
2022-08-09T12:25:35.734Z,26.19
2022-08-09T12:26:19.641Z,26.15
2022-08-09T12:29:12.149Z,26.10
2022-08-09T12:29:43.628Z,26.07
2022-08-09T12:29:54.093Z,26.04
2022-08-09T12:30:39.310Z,26.03
2022-08-09T12:32:01.729Z,26.10
2022-08-09T12:32:37.019Z,26.18
2022-08-09T12:33:58.352Z,26.23
2022-08-09T12:34:36.810Z,26.26
2022-08-09T12:35:41.095Z,26.18
2022-08-09T12:36:36.703Z,26.10
2022-08-09T12:37:44.031Z,25.96
2022-08-09T12:38:37.845Z,25.85
2022-08-09T12:39:37.821Z,25.83
2022-08-09T12:40:36.720Z,25.78
2022-08-09T12:41:40.146Z,25.80
2022-08-09T12:42:37.355Z,25.85
2022-08-09T12:44:05.910Z,25.91
2022-08-09T12:44:37.503Z,25.92
2022-08-09T12:45:38.639Z,26.03
2022-08-09T12:46:36.719Z,26.07
2022-08-09T12:47:41.300Z,26.11
2022-08-09T12:48:38.397Z,26.16
2022-08-09T12:49:36.531Z,26.18
2022-08-09T12:50:36.498Z,26.16
2022-08-09T12:52:00.253Z,26.08
2022-08-09T12:52:42.924Z,26.13
2022-08-09T12:53:38.814Z,26.23
2022-08-09T12:54:36.498Z,26.18
2022-08-09T12:56:11.975Z,26.18
2022-08-09T12:56:44.089Z,26.22
2022-08-09T12:57:36.513Z,26.18
2022-08-09T12:58:42.785Z,26.15
2022-08-09T12:59:57.936Z,26.18
2022-08-09T13:00:36.444Z,26.18